createdAt,value
2019-04-05T00:01:16.448Z,19.20
2019-04-05T00:04:04.224Z,18.53
2019-04-05T00:06:32.643Z,18.37
2019-04-05T00:09:01.071Z,20.13
2019-04-05T00:11:29.611Z,18.10
2019-04-05T00:13:58.043Z,17.70
2019-04-05T00:16:26.470Z,19.13
2019-04-05T00:18:54.911Z,17.67
2019-04-05T00:21:23.347Z,18.43
2019-04-05T00:23:51.771Z,19.47
2019-04-05T00:26:20.211Z,19.80
2019-04-05T00:28:51.558Z,20.33
2019-04-05T00:31:18.787Z,19.57
2019-04-05T00:33:47.220Z,19.23
2019-04-05T00:36:15.651Z,17.80
2019-04-05T00:38:44.079Z,20.93
2019-04-05T00:41:12.548Z,21.80
2019-04-05T00:43:41.224Z,18.97
2019-04-05T00:46:09.647Z,18.73
2019-04-05T00:48:38.088Z,21.07
2019-04-05T00:51:06.587Z,21.43
2019-04-05T00:53:35.079Z,21.47
2019-04-05T00:56:03.515Z,20.00
2019-04-05T00:58:32.019Z,20.13
2019-04-05T01:01:00.451Z,24.13
2019-04-05T01:03:28.896Z,21.80
2019-04-05T01:05:58.216Z,20.33
2019-04-05T01:08:26.915Z,21.43
2019-04-05T01:10:55.483Z,23.63
2019-04-05T01:13:24.251Z,21.67
2019-04-05T01:15:52.687Z,25.47
2019-04-05T01:18:21.111Z,22.70
2019-04-05T01:20:49.775Z,25.67
2019-04-05T01:23:18.583Z,22.93
2019-04-05T01:25:47.082Z,24.00
2019-04-05T01:28:16.743Z,22.20
2019-04-05T01:30:45.179Z,28.10
2019-04-05T01:33:13.611Z,24.00
2019-04-05T01:35:42.303Z,26.97
2019-04-05T01:38:11.216Z,25.50
2019-04-05T01:40:41.247Z,24.97
2019-04-05T01:43:09.815Z,21.33
2019-04-05T01:45:38.380Z,25.80
2019-04-05T01:48:06.807Z,23.10
2019-04-05T01:50:35.311Z,20.17
2019-04-05T01:53:03.815Z,20.30
2019-04-05T01:55:32.235Z,19.20
2019-04-05T01:58:00.675Z,19.43
2019-04-05T02:00:29.103Z,24.17
2019-04-05T02:02:57.719Z,20.93
2019-04-05T02:05:26.144Z,22.90
2019-04-05T02:07:55.007Z,22.43
2019-04-05T02:10:23.519Z,24.23
2019-04-05T02:12:52.080Z,22.63
2019-04-05T02:15:28.525Z,22.37
2019-04-05T02:17:57.460Z,23.90
2019-04-05T02:20:26.324Z,21.20
2019-04-05T02:22:54.823Z,21.63
2019-04-05T02:25:23.319Z,23.17
2019-04-05T02:27:51.815Z,19.60
2019-04-05T02:30:20.384Z,26.10
2019-04-05T02:32:49.076Z,23.90
2019-04-05T02:35:17.639Z,21.37
2019-04-05T02:37:46.071Z,20.13
2019-04-05T02:40:16.544Z,20.10
2019-04-05T02:42:47.510Z,21.50
2019-04-05T02:45:18.313Z,21.10
2019-04-05T02:47:51.744Z,20.90
2019-04-05T02:50:22.183Z,20.13
2019-04-05T02:52:53.775Z,21.80
2019-04-05T02:55:23.272Z,21.17
2019-04-05T02:57:53.305Z,23.80
2019-04-05T03:00:21.703Z,24.20
2019-04-05T03:02:51.161Z,23.43
2019-04-05T03:05:21.564Z,20.53
2019-04-05T03:07:50.607Z,22.73
2019-04-05T03:10:38.563Z,24.43
2019-04-05T03:13:07.034Z,26.27
2019-04-05T03:15:35.505Z,27.50
2019-04-05T03:18:03.994Z,25.77
2019-04-05T03:20:32.767Z,25.60
2019-04-05T03:23:01.655Z,27.73
2019-04-05T03:25:30.599Z,29.10
2019-04-05T03:27:59.638Z,28.70
2019-04-05T03:30:28.184Z,26.63
2019-04-05T03:32:56.668Z,30.80
2019-04-05T03:35:25.908Z,26.60
2019-04-05T03:37:54.375Z,26.30
2019-04-05T03:40:22.780Z,30.00
2019-04-05T03:42:51.179Z,30.20
2019-04-05T03:45:19.725Z,29.63
2019-04-05T03:47:48.403Z,27.00
2019-04-05T03:50:16.803Z,28.17
2019-04-05T03:52:45.206Z,27.70
2019-04-05T03:55:13.690Z,27.97
2019-04-05T03:57:42.824Z,26.50
2019-04-05T04:00:11.566Z,26.73
2019-04-05T04:02:39.984Z,29.60
2019-04-05T04:05:08.515Z,31.67
2019-04-05T04:07:37.255Z,28.57
2019-04-05T04:10:08.739Z,32.37
2019-04-05T04:12:37.219Z,28.03
2019-04-05T04:15:14.237Z,30.37
2019-04-05T04:17:44.476Z,32.40
2019-04-05T04:20:35.527Z,35.17
2019-04-05T04:23:06.895Z,33.20
2019-04-05T04:25:36.834Z,35.10
2019-04-05T04:28:06.275Z,34.13
2019-04-05T04:30:36.519Z,31.43
2019-04-05T04:33:06.663Z,29.13
2019-04-05T04:35:35.574Z,29.67
2019-04-05T04:38:04.419Z,28.33
2019-04-05T04:40:33.192Z,26.73
2019-04-05T04:43:02.140Z,31.27
2019-04-05T04:45:31.304Z,30.23
2019-04-05T04:47:59.844Z,31.47
2019-04-05T04:50:29.385Z,30.57
2019-04-05T04:52:58.832Z,32.07
2019-04-05T04:55:27.371Z,29.23
2019-04-05T04:57:55.941Z,30.30
2019-04-05T05:00:24.794Z,28.20
2019-04-05T05:02:53.844Z,28.20
2019-04-05T05:05:22.713Z,28.00
2019-04-05T05:07:51.570Z,30.67
2019-04-05T05:10:20.128Z,32.57
2019-04-05T05:12:48.712Z,30.40
2019-04-05T05:15:19.361Z,27.63
2019-04-05T05:17:58.019Z,31.37
2019-04-05T05:20:18.558Z,27.83
2019-04-05T05:22:47.055Z,29.10
2019-04-05T05:25:16.193Z,32.13
2019-04-05T05:27:44.597Z,28.73
2019-04-05T05:30:13.142Z,27.40
2019-04-05T05:32:41.885Z,27.20
2019-04-05T05:35:10.431Z,28.20
2019-04-05T05:37:38.913Z,28.70
2019-04-05T05:40:10.458Z,29.93
2019-04-05T05:42:38.863Z,27.60
2019-04-05T05:45:08.243Z,30.77
2019-04-05T05:47:36.634Z,29.63
2019-04-05T05:50:07.952Z,28.40
2019-04-05T05:52:37.320Z,30.53
2019-04-05T05:55:07.363Z,31.77
2019-04-05T05:57:35.760Z,28.87
2019-04-05T06:00:07.375Z,28.20
2019-04-05T06:02:36.459Z,30.23
2019-04-05T06:05:06.738Z,29.17
2019-04-05T06:07:35.154Z,31.00
2019-04-05T06:10:07.108Z,31.23
2019-04-05T06:12:35.522Z,32.27
2019-04-05T06:15:05.995Z,31.73
2019-04-05T06:17:34.395Z,31.80
2019-04-05T06:20:02.798Z,30.73
2019-04-05T06:22:31.228Z,28.13
2019-04-05T06:24:59.636Z,30.63
2019-04-05T06:27:28.042Z,33.13
2019-04-05T06:29:56.494Z,33.37
2019-04-05T06:32:24.896Z,33.90
2019-04-05T06:34:53.306Z,35.90
2019-04-05T06:37:21.710Z,32.13
2019-04-05T06:39:50.116Z,35.47
2019-04-05T06:42:18.521Z,30.30
2019-04-05T06:44:46.915Z,35.93
2019-04-05T06:47:15.351Z,37.37
2019-04-05T06:49:43.806Z,33.73
2019-04-05T06:52:12.210Z,34.43
2019-04-05T06:54:40.619Z,35.33
2019-04-05T06:57:09.018Z,32.27
2019-04-05T06:59:37.439Z,33.03
2019-04-05T07:02:06.175Z,31.40
2019-04-05T07:04:34.581Z,30.87
2019-04-05T07:07:02.995Z,31.17
2019-04-05T07:09:33.945Z,30.20
2019-04-05T07:12:01.527Z,26.77
2019-04-05T07:14:29.943Z,27.23
2019-04-05T07:16:58.349Z,29.37
2019-04-05T07:19:27.086Z,28.20
2019-04-05T07:21:55.498Z,26.53
2019-04-05T07:24:23.906Z,29.27
2019-04-05T07:26:52.381Z,27.27
2019-04-05T07:29:20.788Z,29.40
2019-04-05T07:31:49.188Z,28.90
2019-04-05T07:34:17.595Z,26.30
2019-04-05T07:36:46.019Z,26.13
2019-04-05T07:39:14.434Z,27.63
2019-04-05T07:41:42.835Z,26.67
2019-04-05T07:44:11.241Z,27.87
2019-04-05T07:46:39.639Z,25.00
2019-04-05T07:49:08.051Z,26.40
2019-04-05T07:51:36.531Z,27.93
2019-04-05T07:54:05.078Z,27.20
2019-04-05T07:56:33.559Z,27.83
2019-04-05T07:59:01.987Z,26.17
2019-04-05T08:01:30.462Z,28.53
2019-04-05T08:03:58.862Z,26.90
2019-04-05T08:06:27.706Z,27.97
2019-04-05T08:09:08.132Z,26.30
2019-04-05T08:11:37.407Z,26.20
2019-04-05T08:14:05.964Z,30.17
2019-04-05T08:16:34.634Z,28.27
2019-04-05T08:19:03.045Z,25.40
2019-04-05T08:21:31.444Z,27.63
2019-04-05T08:23:59.919Z,30.03
2019-04-05T08:26:28.327Z,27.53
2019-04-05T08:28:56.745Z,26.60
2019-04-05T08:31:25.140Z,25.53
2019-04-05T08:33:53.552Z,24.97
2019-04-05T08:36:21.959Z,27.40
2019-04-05T08:38:50.359Z,26.77
2019-04-05T08:41:18.934Z,26.23
2019-04-05T08:43:47.506Z,27.33
2019-04-05T08:46:16.719Z,29.07
2019-04-05T08:48:45.126Z,25.13
2019-04-05T08:51:13.524Z,26.67
2019-04-05T08:53:41.931Z,26.77
2019-04-05T08:56:10.335Z,26.80
2019-04-05T08:58:38.742Z,26.77
2019-04-05T09:01:07.152Z,29.27
2019-04-05T09:03:35.556Z,28.00
2019-04-05T09:06:04.039Z,26.67
2019-04-05T09:08:33.643Z,26.63
2019-04-05T09:11:02.023Z,29.27
2019-04-05T09:13:30.442Z,26.63
2019-04-05T09:15:59.014Z,31.23
2019-04-05T09:18:27.494Z,29.30
2019-04-05T09:20:55.914Z,27.20
2019-04-05T09:23:23.986Z,26.53
2019-04-05T09:25:52.396Z,26.13
2019-04-05T09:28:20.802Z,27.50
2019-04-05T09:30:51.657Z,25.33
2019-04-05T09:33:19.344Z,25.90
2019-04-05T09:35:47.820Z,28.97
2019-04-05T09:38:16.222Z,23.80
2019-04-05T09:40:44.627Z,25.70
2019-04-05T09:43:13.052Z,24.03
2019-04-05T09:45:41.443Z,23.20
2019-04-05T09:48:10.163Z,22.77
2019-04-05T09:50:38.578Z,21.40
2019-04-05T09:53:06.982Z,22.60
2019-04-05T09:55:35.387Z,21.53
2019-04-05T09:58:04.031Z,23.90
2019-04-05T10:00:32.426Z,21.57
2019-04-05T10:03:00.906Z,20.47
2019-04-05T10:05:29.322Z,22.37
2019-04-05T10:07:57.728Z,22.90
2019-04-05T10:10:26.206Z,19.50
2019-04-05T10:12:55.054Z,20.37
2019-04-05T10:15:23.558Z,22.00
2019-04-05T10:17:51.959Z,19.43
2019-04-05T10:20:20.502Z,19.50
2019-04-05T10:22:48.913Z,19.70
2019-04-05T10:25:17.306Z,21.40
2019-04-05T10:27:45.715Z,20.33
2019-04-05T10:30:15.042Z,20.20
2019-04-05T10:32:45.973Z,21.73
2019-04-05T10:35:13.959Z,21.63
2019-04-05T10:37:42.362Z,22.20
2019-04-05T10:40:12.003Z,18.70
2019-04-05T10:42:40.410Z,20.10
2019-04-05T10:45:11.122Z,21.30
2019-04-05T10:47:39.622Z,19.10
2019-04-05T10:50:10.519Z,24.57
2019-04-05T10:52:39.194Z,19.17
2019-04-05T10:55:08.404Z,21.23
2019-04-05T10:57:36.899Z,20.53
2019-04-05T11:00:08.379Z,23.23
2019-04-05T11:02:36.788Z,18.77
2019-04-05T11:05:05.531Z,19.53
2019-04-05T11:07:35.183Z,20.57
2019-04-05T11:10:05.930Z,20.77
2019-04-05T11:12:34.419Z,20.53
2019-04-05T11:15:03.963Z,20.80
2019-04-05T11:17:32.362Z,20.47
2019-04-05T11:20:00.775Z,19.47
2019-04-05T11:22:29.178Z,20.53
2019-04-05T11:24:57.581Z,19.83
2019-04-05T11:27:26.022Z,19.47
2019-04-05T11:29:54.430Z,17.53
2019-04-05T11:32:22.902Z,17.17
2019-04-05T11:34:51.578Z,17.43
2019-04-05T11:37:20.251Z,18.07
2019-04-05T11:39:48.743Z,17.40
2019-04-05T11:42:19.190Z,18.37
2019-04-05T11:44:53.497Z,22.83
2019-04-05T11:47:20.695Z,16.00
2019-04-05T11:49:50.150Z,20.33
2019-04-05T11:52:18.827Z,16.60
2019-04-05T11:54:47.519Z,17.77
2019-04-05T11:57:15.923Z,18.47
2019-04-05T11:59:44.326Z,16.50
2019-04-05T12:02:20.063Z,15.63
2019-04-05T12:04:48.475Z,18.37
2019-04-05T12:07:16.886Z,15.23
2019-04-05T12:09:45.987Z,15.83
2019-04-05T12:12:15.447Z,15.87
2019-04-05T12:14:43.855Z,18.03
2019-04-05T12:17:12.260Z,17.40
2019-04-05T12:19:40.768Z,17.70
2019-04-05T12:22:09.414Z,15.80
2019-04-05T12:24:38.067Z,17.73
2019-04-05T12:27:06.555Z,18.80
2019-04-05T12:29:34.967Z,16.60
2019-04-05T12:32:03.439Z,16.20
2019-04-05T12:34:31.848Z,16.30
2019-04-05T12:37:00.259Z,16.20
2019-04-05T12:39:28.896Z,15.07
2019-04-05T12:41:57.299Z,14.67
2019-04-05T12:44:25.722Z,15.27
2019-04-05T12:49:22.304Z,15.07
2019-04-05T12:51:50.845Z,14.10
2019-04-05T12:54:19.249Z,14.23
2019-04-05T12:56:47.651Z,14.10
2019-04-05T12:59:16.050Z,18.70
2019-04-05T13:01:45.719Z,17.93
2019-04-05T13:04:14.847Z,16.77
2019-04-05T13:06:43.256Z,18.53
2019-04-05T13:09:13.033Z,15.87
2019-04-05T13:11:41.736Z,15.93
2019-04-05T13:14:10.208Z,16.17
2019-04-05T13:16:38.602Z,20.67
2019-04-05T13:19:07.011Z,17.77
2019-04-05T13:21:35.427Z,19.63
2019-04-05T13:24:04.642Z,19.30
2019-04-05T13:26:36.689Z,20.40
2019-04-05T13:29:04.335Z,19.67
2019-04-05T13:31:32.746Z,17.90
2019-04-05T13:34:01.159Z,20.70
2019-04-05T13:36:29.575Z,17.77
2019-04-05T13:39:00.344Z,19.80
2019-04-05T13:41:31.476Z,20.83
2019-04-05T13:44:01.219Z,18.87
2019-04-05T13:46:28.374Z,21.40
2019-04-05T13:48:56.782Z,20.97
2019-04-05T13:51:28.544Z,22.90
2019-04-05T13:53:55.360Z,20.10
2019-04-05T13:56:23.766Z,20.90
2019-04-05T13:58:52.229Z,26.00
2019-04-05T14:01:21.366Z,23.33
2019-04-05T14:03:50.336Z,26.37
2019-04-05T14:06:19.188Z,24.87
2019-04-05T14:08:47.586Z,23.47
2019-04-05T14:11:15.986Z,25.93
2019-04-05T14:13:44.401Z,23.50
2019-04-05T14:16:13.149Z,21.70
2019-04-05T14:18:45.725Z,21.50
2019-04-05T14:21:11.870Z,24.10
2019-04-05T14:23:40.274Z,23.83
2019-04-05T14:26:08.681Z,26.40
2019-04-05T14:28:37.120Z,24.37
2019-04-05T14:31:05.524Z,27.67
2019-04-05T14:33:33.975Z,27.17
2019-04-05T14:36:02.562Z,26.67
2019-04-05T14:38:31.429Z,28.10
2019-04-05T14:41:00.047Z,29.60
2019-04-05T14:43:28.472Z,29.10
2019-04-05T14:45:56.871Z,24.63
2019-04-05T14:48:27.472Z,28.57
2019-04-05T14:50:55.568Z,29.30
2019-04-05T14:53:25.550Z,28.23
2019-04-05T14:55:53.951Z,27.03
2019-04-05T14:58:22.431Z,29.27
2019-04-05T15:00:50.837Z,29.87
2019-04-05T15:03:19.235Z,28.13
2019-04-05T15:05:47.814Z,32.47
2019-04-05T15:08:16.231Z,27.73
2019-04-05T15:10:44.945Z,28.63
2019-04-05T15:13:13.335Z,32.40
2019-04-05T15:15:41.740Z,29.87
2019-04-05T15:18:10.149Z,29.93
2019-04-05T15:20:38.551Z,30.87
2019-04-05T15:23:09.411Z,27.67
2019-04-05T15:25:37.091Z,32.87
2019-04-05T15:28:05.510Z,32.47
2019-04-05T15:30:33.967Z,32.33
2019-04-05T15:33:03.867Z,32.17
2019-04-05T15:35:32.274Z,35.27
2019-04-05T15:38:02.099Z,36.60
2019-04-05T15:40:30.907Z,34.83
2019-04-05T15:43:00.114Z,34.23
2019-04-05T15:45:28.588Z,32.30
2019-04-05T15:47:57.026Z,32.40
2019-04-05T15:50:25.427Z,32.57
2019-04-05T15:52:53.826Z,33.17
2019-04-05T15:55:22.243Z,33.20
2019-04-05T15:57:50.652Z,27.07
2019-04-05T16:00:25.739Z,33.23
2019-04-05T16:02:52.954Z,33.63
2019-04-05T16:05:21.902Z,35.27
2019-04-05T16:07:50.307Z,37.10
2019-04-05T16:10:19.202Z,30.67
2019-04-05T16:12:47.747Z,30.23
2019-04-05T16:15:16.221Z,32.53
2019-04-05T16:17:44.708Z,30.13
2019-04-05T16:20:13.750Z,37.73
2019-04-05T16:22:42.491Z,36.20
2019-04-05T16:25:11.692Z,29.67
2019-04-05T16:27:40.096Z,31.17
2019-04-05T16:30:10.149Z,31.33
2019-04-05T16:32:38.550Z,31.37
2019-04-05T16:35:07.101Z,34.47
2019-04-05T16:37:35.572Z,33.07
2019-04-05T16:40:06.141Z,33.63
2019-04-05T16:42:34.539Z,36.80
2019-04-05T16:45:03.487Z,33.10
2019-04-05T16:47:31.890Z,34.97
2019-04-05T16:50:00.290Z,33.97
2019-04-05T16:52:28.690Z,32.37
2019-04-05T16:54:57.098Z,40.57
2019-04-05T16:57:25.506Z,35.00
2019-04-05T16:59:53.911Z,36.73
2019-04-05T17:02:22.317Z,41.73
2019-04-05T17:04:50.782Z,37.77
2019-04-05T17:07:19.224Z,37.67
2019-04-05T17:12:15.518Z,41.67
2019-04-05T17:14:43.922Z,42.20
2019-04-05T17:17:12.326Z,38.63
2019-04-05T17:19:40.974Z,50.73
2019-04-05T17:22:09.394Z,45.30
2019-04-05T17:24:37.779Z,42.53
2019-04-05T17:27:06.266Z,42.87
2019-04-05T17:29:34.674Z,42.40
2019-04-05T17:32:03.071Z,55.37
2019-04-05T17:34:31.479Z,50.40
2019-04-05T17:36:59.881Z,49.60
2019-04-05T17:39:28.286Z,48.33
2019-04-05T17:41:56.694Z,44.97
2019-04-05T17:44:25.104Z,49.93
2019-04-05T17:46:53.498Z,55.07
2019-04-05T17:49:21.910Z,43.00
2019-04-05T17:51:50.391Z,49.87
2019-04-05T17:54:18.795Z,48.10
2019-04-05T17:56:47.346Z,47.13
2019-04-05T17:59:16.789Z,50.73
2019-04-05T18:01:45.186Z,47.50
2019-04-05T18:04:13.676Z,43.83
2019-04-05T18:06:42.079Z,47.37
2019-04-05T18:09:10.478Z,53.30
2019-04-05T18:11:38.910Z,49.40
2019-04-05T18:14:07.312Z,51.30
2019-04-05T18:16:35.716Z,49.30
2019-04-05T18:19:04.126Z,49.60
2019-04-05T18:21:32.527Z,48.23
2019-04-05T18:24:00.931Z,50.17
2019-04-05T18:26:29.342Z,47.07
2019-04-05T18:28:57.746Z,45.53
2019-04-05T18:31:26.146Z,47.73
2019-04-05T18:33:54.560Z,45.83
2019-04-05T18:36:22.967Z,48.33
2019-04-05T18:38:51.405Z,51.33
2019-04-05T18:41:19.825Z,44.67
2019-04-05T18:43:48.258Z,47.40
2019-04-05T18:46:16.678Z,45.80
2019-04-05T18:48:45.115Z,45.97
2019-04-05T18:51:13.518Z,44.03
2019-04-05T18:53:42.187Z,43.23
2019-04-05T18:56:10.616Z,42.43
2019-04-05T18:58:39.029Z,45.03
2019-04-05T19:01:07.499Z,41.03
2019-04-05T19:03:35.937Z,42.27
2019-04-05T19:06:04.456Z,39.90
2019-04-05T19:08:39.566Z,39.03
2019-04-05T19:11:03.003Z,38.27
2019-04-05T19:13:31.480Z,46.40
2019-04-05T19:15:59.902Z,53.03
2019-04-05T19:18:28.381Z,53.17
2019-04-05T19:20:56.903Z,64.90
2019-04-05T19:23:25.302Z,62.90
2019-04-05T19:25:53.711Z,56.10
2019-04-05T19:28:22.110Z,49.87
2019-04-05T19:50:51.611Z,58.60
2019-04-05T19:53:20.015Z,61.00
2019-04-05T19:55:48.431Z,60.33
2019-04-05T19:58:16.834Z,62.07
2019-04-05T20:00:45.239Z,60.13
2019-04-05T20:03:13.650Z,57.23
2019-04-05T20:05:42.050Z,67.30
2019-04-05T20:08:10.464Z,59.40
2019-04-05T20:10:38.920Z,59.33
2019-04-05T20:13:07.354Z,65.93
2019-04-05T20:15:35.754Z,68.40
2019-04-05T20:18:04.241Z,64.13
2019-04-05T20:20:32.643Z,67.27
2019-04-05T20:23:01.048Z,67.50
2019-04-05T20:25:29.462Z,60.07
2019-04-05T20:27:57.867Z,67.03
2019-04-05T20:30:26.344Z,63.60
2019-04-05T20:32:54.754Z,62.10
2019-04-05T20:35:23.178Z,68.03
2019-04-05T20:37:51.574Z,72.53
2019-04-05T20:40:19.979Z,68.80
2019-04-05T20:42:48.395Z,72.30
2019-04-05T20:45:17.055Z,74.07
2019-04-05T20:47:45.459Z,75.03
2019-04-05T20:50:13.886Z,76.03
2019-04-05T20:52:42.289Z,77.73
2019-04-05T20:55:10.762Z,68.50
2019-04-05T20:57:39.191Z,76.00
2019-04-05T21:00:09.204Z,75.53
2019-04-05T21:02:37.783Z,78.70
2019-04-05T21:05:07.139Z,74.03
2019-04-05T21:07:35.534Z,79.30
2019-04-05T21:10:06.858Z,74.27
2019-04-05T21:12:35.252Z,69.17
2019-04-05T21:15:04.743Z,73.70
2019-04-05T21:17:33.146Z,77.70
2019-04-05T21:20:01.551Z,72.70
2019-04-05T21:22:30.007Z,83.70
2019-04-05T21:24:58.445Z,79.17
2019-04-05T21:27:26.871Z,81.27
2019-04-05T21:29:55.316Z,77.37
2019-04-05T21:32:23.749Z,84.60
2019-04-05T21:34:52.176Z,71.07
2019-04-05T21:37:20.689Z,86.13
2019-04-05T21:39:49.119Z,79.37
2019-04-05T21:42:17.551Z,87.23
2019-04-05T21:44:46.457Z,82.73
2019-04-05T21:47:15.087Z,83.40
2019-04-05T21:49:43.524Z,92.67
2019-04-05T21:52:11.963Z,76.27
2019-04-05T21:54:47.384Z,82.63
2019-04-05T21:57:10.538Z,81.23
2019-04-05T21:59:38.999Z,82.73
2019-04-05T22:02:07.795Z,82.83
2019-04-05T22:04:36.219Z,84.47
2019-04-05T22:07:05.112Z,99.27
2019-04-05T22:09:33.541Z,86.10
2019-04-05T22:12:01.965Z,92.10
2019-04-05T22:14:30.432Z,93.20
2019-04-05T22:16:58.878Z,85.23
2019-04-05T22:19:27.318Z,99.10
2019-04-05T22:21:56.278Z,87.90
2019-04-05T22:24:24.741Z,100.47
2019-04-05T22:26:53.260Z,97.30
2019-04-05T22:29:21.776Z,101.90
2019-04-05T22:31:50.214Z,91.23
2019-04-05T22:34:18.653Z,92.93
2019-04-05T22:36:47.107Z,94.33
2019-04-05T22:39:15.547Z,92.13
2019-04-05T22:41:44.005Z,90.40
2019-04-05T22:44:12.437Z,89.07
2019-04-05T22:46:40.899Z,84.47
2019-04-05T22:49:09.338Z,83.10
2019-04-05T22:51:37.777Z,90.93
2019-04-05T22:54:06.229Z,90.23
2019-04-05T22:56:34.667Z,85.80
2019-04-05T22:59:03.154Z,92.63
2019-04-05T23:01:31.636Z,91.40
2019-04-05T23:04:00.154Z,98.17
2019-04-05T23:06:28.593Z,103.23
2019-04-05T23:08:57.047Z,95.73
2019-04-05T23:11:25.490Z,95.43
2019-04-05T23:13:53.930Z,101.40
2019-04-05T23:16:22.373Z,89.70
2019-04-05T23:18:50.818Z,97.70
2019-04-05T23:21:19.270Z,99.27
2019-04-05T23:23:47.721Z,104.87
2019-04-05T23:26:16.166Z,108.07
2019-04-05T23:28:44.615Z,106.03
2019-04-05T23:31:13.059Z,107.47
2019-04-05T23:33:41.518Z,108.50
2019-04-05T23:36:09.968Z,110.30
2019-04-05T23:38:38.409Z,108.60
2019-04-05T23:41:06.926Z,114.43
2019-04-05T23:43:35.370Z,112.90
2019-04-05T23:46:03.809Z,114.47
2019-04-05T23:48:32.261Z,120.00
2019-04-05T23:51:00.726Z,118.67
2019-04-05T23:53:29.190Z,117.23
2019-04-05T23:55:57.732Z,117.50
2019-04-05T23:58:26.170Z,114.97
